sensor_id;sensor_type;location;lat;lon;timestamp;pressure;altitude;pressure_sealevel;temperature;humidity
61359;BME280;47228;46.762;23.598;2023-03-14T00:01:10;97051.22;;;1.92;57.22
61359;BME280;47228;46.762;23.598;2023-03-14T00:03:38;97047.91;;;1.90;57.63
61359;BME280;47228;46.762;23.598;2023-03-14T00:06:07;97040.23;;;1.86;57.65
61359;BME280;47228;46.762;23.598;2023-03-14T00:08:35;97032.95;;;1.83;58.10
61359;BME280;47228;46.762;23.598;2023-03-14T00:11:06;97022.20;;;1.80;58.33
61359;BME280;47228;46.762;23.598;2023-03-14T00:13:35;97024.66;;;1.76;58.20
61359;BME280;47228;46.762;23.598;2023-03-14T00:16:11;97020.84;;;1.71;58.30
61359;BME280;47228;46.762;23.598;2023-03-14T00:18:40;97020.88;;;1.67;58.85
61359;BME280;47228;46.762;23.598;2023-03-14T00:21:10;97019.35;;;1.63;59.12
61359;BME280;47228;46.762;23.598;2023-03-14T00:23:40;97013.54;;;1.60;59.39
61359;BME280;47228;46.762;23.598;2023-03-14T00:26:13;97009.00;;;1.57;59.27
61359;BME280;47228;46.762;23.598;2023-03-14T00:28:42;97012.17;;;1.52;59.34
61359;BME280;47228;46.762;23.598;2023-03-14T00:31:13;96998.17;;;1.53;59.52
61359;BME280;47228;46.762;23.598;2023-03-14T00:33:43;97001.76;;;1.55;59.39
61359;BME280;47228;46.762;23.598;2023-03-14T00:36:14;96993.89;;;1.59;59.23
61359;BME280;47228;46.762;23.598;2023-03-14T00:38:43;96988.98;;;1.65;59.39
61359;BME280;47228;46.762;23.598;2023-03-14T00:41:14;96992.70;;;1.70;59.02
61359;BME280;47228;46.762;23.598;2023-03-14T00:43:43;96985.61;;;1.72;58.99
61359;BME280;47228;46.762;23.598;2023-03-14T00:46:12;96989.00;;;1.75;59.15
61359;BME280;47228;46.762;23.598;2023-03-14T00:48:40;96980.27;;;1.77;59.15
61359;BME280;47228;46.762;23.598;2023-03-14T00:51:09;96979.69;;;1.77;59.25
61359;BME280;47228;46.762;23.598;2023-03-14T00:53:38;96977.70;;;1.75;59.19
61359;BME280;47228;46.762;23.598;2023-03-14T00:56:09;96966.45;;;1.70;59.41
61359;BME280;47228;46.762;23.598;2023-03-14T00:58:38;96966.58;;;1.67;59.42
61359;BME280;47228;46.762;23.598;2023-03-14T01:01:14;96962.31;;;1.64;59.52
61359;BME280;47228;46.762;23.598;2023-03-14T01:03:42;96956.67;;;1.61;59.45
61359;BME280;47228;46.762;23.598;2023-03-14T01:06:16;96952.21;;;1.59;59.50
61359;BME280;47228;46.762;23.598;2023-03-14T01:08:45;96948.98;;;1.58;59.47
61359;BME280;47228;46.762;23.598;2023-03-14T01:11:17;96950.75;;;1.58;59.43
61359;BME280;47228;46.762;23.598;2023-03-14T01:13:45;96948.11;;;1.57;59.45
61359;BME280;47228;46.762;23.598;2023-03-14T01:16:14;96945.67;;;1.54;59.49
61359;BME280;47228;46.762;23.598;2023-03-14T01:18:43;96950.58;;;1.54;59.66
61359;BME280;47228;46.762;23.598;2023-03-14T01:21:24;96951.37;;;1.55;59.62
61359;BME280;47228;46.762;23.598;2023-03-14T01:23:54;96945.98;;;1.57;59.86
61359;BME280;47228;46.762;23.598;2023-03-14T01:26:24;96943.58;;;1.60;59.77
61359;BME280;47228;46.762;23.598;2023-03-14T01:28:55;96942.92;;;1.63;59.47
61359;BME280;47228;46.762;23.598;2023-03-14T01:31:24;96940.42;;;1.67;59.35
61359;BME280;47228;46.762;23.598;2023-03-14T01:33:52;96935.41;;;1.70;59.37
61359;BME280;47228;46.762;23.598;2023-03-14T01:36:20;96935.34;;;1.72;59.28
61359;BME280;47228;46.762;23.598;2023-03-14T01:38:48;96930.05;;;1.75;59.64
61359;BME280;47228;46.762;23.598;2023-03-14T01:41:20;96926.06;;;1.76;59.85
61359;BME280;47228;46.762;23.598;2023-03-14T01:43:49;96923.08;;;1.76;60.17
61359;BME280;47228;46.762;23.598;2023-03-14T01:46:18;96920.98;;;1.76;60.36
61359;BME280;47228;46.762;23.598;2023-03-14T01:52:02;96922.82;;;1.75;60.71
61359;BME280;47228;46.762;23.598;2023-03-14T01:57:11;96916.52;;;1.70;60.90
61359;BME280;47228;46.762;23.598;2023-03-14T01:59:47;96911.12;;;1.68;61.17
61359;BME280;47228;46.762;23.598;2023-03-14T02:02:16;96908.23;;;1.66;61.28
61359;BME280;47228;46.762;23.598;2023-03-14T02:04:45;96907.33;;;1.64;61.21
61359;BME280;47228;46.762;23.598;2023-03-14T02:07:20;96912.56;;;1.66;61.21
61359;BME280;47228;46.762;23.598;2023-03-14T02:09:50;96913.63;;;1.70;61.36
61359;BME280;47228;46.762;23.598;2023-03-14T02:12:20;96910.46;;;1.73;61.44
61359;BME280;47228;46.762;23.598;2023-03-14T02:14:49;96905.13;;;1.78;61.62
61359;BME280;47228;46.762;23.598;2023-03-14T02:17:18;96904.24;;;1.81;61.33
61359;BME280;47228;46.762;23.598;2023-03-14T02:22:15;96900.70;;;1.88;60.50
61359;BME280;47228;46.762;23.598;2023-03-14T02:27:34;96897.53;;;1.92;60.55
61359;BME280;47228;46.762;23.598;2023-03-14T02:30:10;96890.14;;;1.92;60.34
61359;BME280;47228;46.762;23.598;2023-03-14T02:32:41;96890.17;;;1.92;60.11
61359;BME280;47228;46.762;23.598;2023-03-14T02:35:14;96889.80;;;1.92;60.00
61359;BME280;47228;46.762;23.598;2023-03-14T02:38:01;96884.54;;;1.93;60.03
61359;BME280;47228;46.762;23.598;2023-03-14T02:40:31;96880.99;;;1.91;59.76
61359;BME280;47228;46.762;23.598;2023-03-14T02:42:59;96879.42;;;1.90;59.65
61359;BME280;47228;46.762;23.598;2023-03-14T02:45:39;96877.65;;;1.88;59.70
61359;BME280;47228;46.762;23.598;2023-03-14T02:48:15;96883.13;;;1.86;59.61
61359;BME280;47228;46.762;23.598;2023-03-14T02:50:48;96883.70;;;1.84;59.76
61359;BME280;47228;46.762;23.598;2023-03-14T02:53:21;96882.39;;;1.83;59.85
61359;BME280;47228;46.762;23.598;2023-03-14T02:55:51;96887.77;;;1.82;59.74
61359;BME280;47228;46.762;23.598;2023-03-14T02:58:19;96894.91;;;1.78;59.68
61359;BME280;47228;46.762;23.598;2023-03-14T03:00:48;96891.44;;;1.77;59.96
61359;BME280;47228;46.762;23.598;2023-03-14T03:03:16;96884.06;;;1.75;60.52
61359;BME280;47228;46.762;23.598;2023-03-14T03:05:48;96880.07;;;1.73;60.90
61359;BME280;47228;46.762;23.598;2023-03-14T03:08:17;96881.73;;;1.71;61.11
61359;BME280;47228;46.762;23.598;2023-03-14T03:10:46;96879.66;;;1.67;60.85
61359;BME280;47228;46.762;23.598;2023-03-14T03:13:14;96876.23;;;1.63;60.74
61359;BME280;47228;46.762;23.598;2023-03-14T03:15:43;96874.74;;;1.59;60.58
61359;BME280;47228;46.762;23.598;2023-03-14T03:18:10;96875.88;;;1.56;60.64
61359;BME280;47228;46.762;23.598;2023-03-14T03:20:38;96879.90;;;1.54;60.60
61359;BME280;47228;46.762;23.598;2023-03-14T03:23:06;96872.85;;;1.53;61.26
61359;BME280;47228;46.762;23.598;2023-03-14T03:25:34;96867.76;;;1.52;60.96
61359;BME280;47228;46.762;23.598;2023-03-14T03:28:02;96868.60;;;1.50;60.90
61359;BME280;47228;46.762;23.598;2023-03-14T03:30:41;96871.20;;;1.47;61.12
61359;BME280;47228;46.762;23.598;2023-03-14T03:33:10;96872.37;;;1.44;61.06
61359;BME280;47228;46.762;23.598;2023-03-14T03:35:45;96870.36;;;1.42;61.42
61359;BME280;47228;46.762;23.598;2023-03-14T03:38:14;96863.94;;;1.41;61.79
61359;BME280;47228;46.762;23.598;2023-03-14T03:40:43;96861.04;;;1.42;62.19
61359;BME280;47228;46.762;23.598;2023-03-14T03:43:11;96860.79;;;1.45;62.48
61359;BME280;47228;46.762;23.598;2023-03-14T03:45:39;96853.67;;;1.48;62.50
61359;BME280;47228;46.762;23.598;2023-03-14T03:48:07;96849.98;;;1.52;62.53
61359;BME280;47228;46.762;23.598;2023-03-14T03:50:35;96849.56;;;1.54;62.73
61359;BME280;47228;46.762;23.598;2023-03-14T03:53:03;96849.19;;;1.56;62.51
61359;BME280;47228;46.762;23.598;2023-03-14T03:55:31;96851.05;;;1.58;62.49
61359;BME280;47228;46.762;23.598;2023-03-14T03:57:59;96844.95;;;1.60;62.57
61359;BME280;47228;46.762;23.598;2023-03-14T04:00:27;96844.36;;;1.61;62.29
61359;BME280;47228;46.762;23.598;2023-03-14T04:02:55;96842.69;;;1.62;62.19
61359;BME280;47228;46.762;23.598;2023-03-14T04:05:23;96845.72;;;1.62;62.13
61359;BME280;47228;46.762;23.598;2023-03-14T04:07:54;96844.58;;;1.62;61.92
61359;BME280;47228;46.762;23.598;2023-03-14T04:10:38;96842.85;;;1.60;61.73
61359;BME280;47228;46.762;23.598;2023-03-14T04:13:06;96841.50;;;1.58;61.58
61359;BME280;47228;46.762;23.598;2023-03-14T04:15:34;96839.95;;;1.54;61.86
61359;BME280;47228;46.762;23.598;2023-03-14T04:18:02;96836.86;;;1.52;61.85
61359;BME280;47228;46.762;23.598;2023-03-14T04:20:30;96832.55;;;1.50;61.90
61359;BME280;47228;46.762;23.598;2023-03-14T04:22:58;96831.49;;;1.48;62.30
61359;BME280;47228;46.762;23.598;2023-03-14T04:25:26;96827.01;;;1.46;62.10
61359;BME280;47228;46.762;23.598;2023-03-14T04:27:54;96824.48;;;1.44;61.94
61359;BME280;47228;46.762;23.598;2023-03-14T04:30:22;96820.31;;;1.41;62.31
61359;BME280;47228;46.762;23.598;2023-03-14T04:32:51;96819.73;;;1.38;62.12
61359;BME280;47228;46.762;23.598;2023-03-14T04:35:23;96819.17;;;1.35;61.90
61359;BME280;47228;46.762;23.598;2023-03-14T04:37:51;96819.59;;;1.33;62.01
61359;BME280;47228;46.762;23.598;2023-03-14T04:40:23;96818.79;;;1.31;62.49
61359;BME280;47228;46.762;23.598;2023-03-14T04:42:51;96816.52;;;1.29;62.63
61359;BME280;47228;46.762;23.598;2023-03-14T04:45:20;96816.77;;;1.26;62.70
61359;BME280;47228;46.762;23.598;2023-03-14T04:47:47;96816.84;;;1.24;62.78
61359;BME280;47228;46.762;23.598;2023-03-14T04:50:15;96814.57;;;1.22;63.08
61359;BME280;47228;46.762;23.598;2023-03-14T04:52:43;96817.81;;;1.21;63.06
61359;BME280;47228;46.762;23.598;2023-03-14T04:55:21;96816.63;;;1.23;62.93
61359;BME280;47228;46.762;23.598;2023-03-14T04:57:56;96815.54;;;1.26;63.30
61359;BME280;47228;46.762;23.598;2023-03-14T05:00:24;96811.45;;;1.31;63.36
61359;BME280;47228;46.762;23.598;2023-03-14T05:02:52;96807.92;;;1.35;63.34
61359;BME280;47228;46.762;23.598;2023-03-14T05:05:20;96805.35;;;1.39;63.01
61359;BME280;47228;46.762;23.598;2023-03-14T05:07:49;96801.08;;;1.44;62.84
61359;BME280;47228;46.762;23.598;2023-03-14T05:10:17;96801.75;;;1.48;62.91
61359;BME280;47228;46.762;23.598;2023-03-14T05:12:45;96805.71;;;1.51;62.90
61359;BME280;47228;46.762;23.598;2023-03-14T05:15:15;96801.02;;;1.54;63.15
61359;BME280;47228;46.762;23.598;2023-03-14T05:17:43;96799.77;;;1.57;62.98
61359;BME280;47228;46.762;23.598;2023-03-14T05:20:11;96797.36;;;1.60;62.72
61359;BME280;47228;46.762;23.598;2023-03-14T05:22:43;96802.11;;;1.62;62.97
61359;BME280;47228;46.762;23.598;2023-03-14T05:25:11;96797.21;;;1.66;62.81
61359;BME280;47228;46.762;23.598;2023-03-14T05:27:39;96794.80;;;1.71;62.86
61359;BME280;47228;46.762;23.598;2023-03-14T05:30:08;96792.34;;;1.74;62.76
61359;BME280;47228;46.762;23.598;2023-03-14T05:32:36;96795.56;;;1.79;62.74
61359;BME280;47228;46.762;23.598;2023-03-14T05:35:04;96798.81;;;1.83;62.88
61359;BME280;47228;46.762;23.598;2023-03-14T05:37:32;96794.92;;;1.87;62.80
61359;BME280;47228;46.762;23.598;2023-03-14T05:40:02;96784.52;;;1.91;62.67
61359;BME280;47228;46.762;23.598;2023-03-14T05:42:30;96781.65;;;1.95;62.56
61359;BME280;47228;46.762;23.598;2023-03-14T05:44:58;96777.88;;;1.99;62.96
61359;BME280;47228;46.762;23.598;2023-03-14T05:47:26;96772.80;;;2.04;62.50
61359;BME280;47228;46.762;23.598;2023-03-14T05:49:54;96773.63;;;2.10;62.23
61359;BME280;47228;46.762;23.598;2023-03-14T05:52:22;96774.80;;;2.15;62.30
61359;BME280;47228;46.762;23.598;2023-03-14T05:54:50;96772.77;;;2.21;62.13
61359;BME280;47228;46.762;23.598;2023-03-14T05:57:18;96767.17;;;2.26;62.12
61359;BME280;47228;46.762;23.598;2023-03-14T05:59:46;96760.09;;;2.32;61.96
61359;BME280;47228;46.762;23.598;2023-03-14T06:02:13;96758.73;;;2.39;61.95
61359;BME280;47228;46.762;23.598;2023-03-14T06:04:41;96757.23;;;2.44;61.87
61359;BME280;47228;46.762;23.598;2023-03-14T06:07:09;96755.09;;;2.51;62.01
61359;BME280;47228;46.762;23.598;2023-03-14T06:09:37;96752.88;;;2.59;61.47
61359;BME280;47228;46.762;23.598;2023-03-14T06:12:07;96746.85;;;2.66;61.16
61359;BME280;47228;46.762;23.598;2023-03-14T06:14:35;96745.91;;;2.73;60.98
61359;BME280;47228;46.762;23.598;2023-03-14T06:17:03;96750.09;;;2.80;60.72
61359;BME280;47228;46.762;23.598;2023-03-14T06:19:31;96748.56;;;2.86;60.40
61359;BME280;47228;46.762;23.598;2023-03-14T06:21:59;96752.09;;;2.92;60.21
61359;BME280;47228;46.762;23.598;2023-03-14T06:24:27;96754.20;;;2.99;60.35
61359;BME280;47228;46.762;23.598;2023-03-14T06:26:54;96746.89;;;3.05;60.46
61359;BME280;47228;46.762;23.598;2023-03-14T06:29:22;96750.05;;;3.09;59.97
61359;BME280;47228;46.762;23.598;2023-03-14T06:31:50;96745.90;;;3.14;59.81
61359;BME280;47228;46.762;23.598;2023-03-14T06:34:18;96744.40;;;3.19;59.95
61359;BME280;47228;46.762;23.598;2023-03-14T06:36:46;96737.60;;;3.24;60.02
61359;BME280;47228;46.762;23.598;2023-03-14T06:39:15;96735.17;;;3.29;59.73
61359;BME280;47228;46.762;23.598;2023-03-14T06:41:45;96737.05;;;3.33;59.59
61359;BME280;47228;46.762;23.598;2023-03-14T06:44:13;96731.80;;;3.38;59.64
61359;BME280;47228;46.762;23.598;2023-03-14T06:46:41;96725.05;;;3.44;59.69
61359;BME280;47228;46.762;23.598;2023-03-14T06:49:08;96722.70;;;3.51;59.73
61359;BME280;47228;46.762;23.598;2023-03-14T06:51:36;96718.95;;;3.58;59.39
61359;BME280;47228;46.762;23.598;2023-03-14T06:54:04;96714.88;;;3.65;59.45
61359;BME280;47228;46.762;23.598;2023-03-14T06:56:32;96712.45;;;3.72;59.36
61359;BME280;47228;46.762;23.598;2023-03-14T06:59:00;96708.30;;;3.80;59.15
61359;BME280;47228;46.762;23.598;2023-03-14T07:01:29;96705.43;;;3.90;59.19
61359;BME280;47228;46.762;23.598;2023-03-14T07:03:58;96702.55;;;4.01;59.37
61359;BME280;47228;46.762;23.598;2023-03-14T07:06:26;96700.27;;;4.13;59.16
61359;BME280;47228;46.762;23.598;2023-03-14T07:08:56;96694.45;;;4.27;58.75
61359;BME280;47228;46.762;23.598;2023-03-14T07:11:26;96696.17;;;4.43;58.75
61359;BME280;47228;46.762;23.598;2023-03-14T07:13:54;96693.08;;;4.59;58.47
61359;BME280;47228;46.762;23.598;2023-03-14T07:16:21;96687.89;;;4.76;58.11
61359;BME280;47228;46.762;23.598;2023-03-14T07:18:49;96683.52;;;4.96;58.02
61359;BME280;47228;46.762;23.598;2023-03-14T07:21:17;96677.64;;;5.17;57.47
61359;BME280;47228;46.762;23.598;2023-03-14T07:23:45;96679.52;;;5.38;56.85
61359;BME280;47228;46.762;23.598;2023-03-14T07:26:13;96675.03;;;5.59;56.96
61359;BME280;47228;46.762;23.598;2023-03-14T07:28:41;96666.47;;;5.81;56.65
61359;BME280;47228;46.762;23.598;2023-03-14T07:31:09;96664.67;;;6.02;56.41
61359;BME280;47228;46.762;23.598;2023-03-14T07:33:37;96662.85;;;6.24;55.97
61359;BME280;47228;46.762;23.598;2023-03-14T07:36:06;96659.20;;;6.46;55.32
61359;BME280;47228;46.762;23.598;2023-03-14T07:38:34;96660.42;;;6.69;54.58
61359;BME280;47228;46.762;23.598;2023-03-14T07:41:04;96654.17;;;6.89;53.96
61359;BME280;47228;46.762;23.598;2023-03-14T07:43:33;96649.35;;;7.10;54.34
61359;BME280;47228;46.762;23.598;2023-03-14T07:46:01;96649.92;;;7.32;53.68
61359;BME280;47228;46.762;23.598;2023-03-14T07:48:29;96647.13;;;7.51;52.99
61359;BME280;47228;46.762;23.598;2023-03-14T07:50:57;96642.66;;;7.68;52.34
61359;BME280;47228;46.762;23.598;2023-03-14T07:53:25;96633.27;;;7.83;51.63
61359;BME280;47228;46.762;23.598;2023-03-14T07:55:54;96627.21;;;7.96;51.43
61359;BME280;47228;46.762;23.598;2023-03-14T07:58:22;96619.02;;;8.08;50.75
61359;BME280;47228;46.762;23.598;2023-03-14T08:00:51;96621.00;;;8.26;50.20
61359;BME280;47228;46.762;23.598;2023-03-14T08:03:19;96626.41;;;8.46;49.48
61359;BME280;47228;46.762;23.598;2023-03-14T08:05:48;96627.59;;;8.68;49.53
61359;BME280;47228;46.762;23.598;2023-03-14T08:08:17;96625.71;;;8.90;48.67
61359;BME280;47228;46.762;23.598;2023-03-14T08:10:45;96622.52;;;9.09;48.19
61359;BME280;47228;46.762;23.598;2023-03-14T08:13:14;96623.29;;;9.26;47.43
61359;BME280;47228;46.762;23.598;2023-03-14T08:15:41;96620.49;;;9.45;47.28
61359;BME280;47228;46.762;23.598;2023-03-14T08:18:09;96622.70;;;9.67;46.66
61359;BME280;47228;46.762;23.598;2023-03-14T08:20:37;96618.68;;;9.90;46.56
61359;BME280;47228;46.762;23.598;2023-03-14T08:23:05;96617.94;;;10.11;46.10
61359;BME280;47228;46.762;23.598;2023-03-14T08:25:33;96620.17;;;10.29;45.77
61359;BME280;47228;46.762;23.598;2023-03-14T08:28:01;96619.91;;;10.46;44.79
61359;BME280;47228;46.762;23.598;2023-03-14T08:30:29;96617.67;;;10.61;44.65
61359;BME280;47228;46.762;23.598;2023-03-14T08:32:57;96619.67;;;10.72;43.89
61359;BME280;47228;46.762;23.598;2023-03-14T08:35:26;96614.20;;;10.78;43.21
61359;BME280;47228;46.762;23.598;2023-03-14T08:37:55;96605.17;;;10.81;43.37
61359;BME280;47228;46.762;23.598;2023-03-14T08:40:23;96600.86;;;10.85;42.98
61359;BME280;47228;46.762;23.598;2023-03-14T08:42:51;96599.73;;;10.90;43.41
61359;BME280;47228;46.762;23.598;2023-03-14T08:45:19;96592.06;;;10.94;43.16
61359;BME280;47228;46.762;23.598;2023-03-14T08:47:47;96592.04;;;10.96;42.96
61359;BME280;47228;46.762;23.598;2023-03-14T08:50:15;96593.05;;;10.98;43.15
61359;BME280;47228;46.762;23.598;2023-03-14T08:52:43;96595.52;;;10.99;42.93
61359;BME280;47228;46.762;23.598;2023-03-14T08:55:11;96594.09;;;11.02;42.73
61359;BME280;47228;46.762;23.598;2023-03-14T08:57:39;96596.56;;;11.03;42.62
61359;BME280;47228;46.762;23.598;2023-03-14T09:00:08;96598.19;;;11.06;42.74
61359;BME280;47228;46.762;23.598;2023-03-14T09:02:38;96593.37;;;11.13;42.93
61359;BME280;47228;46.762;23.598;2023-03-14T09:05:07;96589.21;;;11.21;42.80
61359;BME280;47228;46.762;23.598;2023-03-14T09:07:35;96587.29;;;11.33;42.88
61359;BME280;47228;46.762;23.598;2023-03-14T09:10:03;96586.28;;;11.48;42.81
61359;BME280;47228;46.762;23.598;2023-03-14T09:12:31;96579.53;;;11.61;42.25
61359;BME280;47228;46.762;23.598;2023-03-14T09:14:59;96574.55;;;11.74;42.04
61359;BME280;47228;46.762;23.598;2023-03-14T09:17:27;96569.23;;;11.84;42.19
61359;BME280;47228;46.762;23.598;2023-03-14T09:19:55;96569.19;;;11.93;41.36
61359;BME280;47228;46.762;23.598;2023-03-14T09:22:27;96560.33;;;11.97;41.34
61359;BME280;47228;46.762;23.598;2023-03-14T09:24:54;96557.68;;;11.99;41.11
61359;BME280;47228;46.762;23.598;2023-03-14T09:27:22;96554.66;;;12.00;40.99
61359;BME280;47228;46.762;23.598;2023-03-14T09:29:50;96545.95;;;12.01;41.36
61359;BME280;47228;46.762;23.598;2023-03-14T09:32:18;96537.92;;;12.04;41.79
61359;BME280;47228;46.762;23.598;2023-03-14T09:34:46;96529.16;;;12.09;41.67
61359;BME280;47228;46.762;23.598;2023-03-14T09:37:14;96528.08;;;12.16;41.22
61359;BME280;47228;46.762;23.598;2023-03-14T09:39:43;96524.64;;;12.24;41.64
61359;BME280;47228;46.762;23.598;2023-03-14T09:42:15;96523.05;;;12.35;41.07
61359;BME280;47228;46.762;23.598;2023-03-14T09:44:58;96518.92;;;12.44;40.12
61359;BME280;47228;46.762;23.598;2023-03-14T09:47:27;96514.20;;;12.50;40.81
61359;BME280;47228;46.762;23.598;2023-03-14T09:49:55;96513.02;;;12.56;41.45
61359;BME280;47228;46.762;23.598;2023-03-14T09:52:28;96505.70;;;12.61;41.13
61359;BME280;47228;46.762;23.598;2023-03-14T09:55:03;96506.69;;;12.65;40.49
61359;BME280;47228;46.762;23.598;2023-03-14T09:57:33;96499.94;;;12.65;40.45
61359;BME280;47228;46.762;23.598;2023-03-14T10:00:16;96496.20;;;12.68;40.03
61359;BME280;47228;46.762;23.598;2023-03-14T10:03:18;96491.77;;;12.74;39.72
61359;BME280;47228;46.762;23.598;2023-03-14T10:05:48;96484.61;;;12.88;39.98
61359;BME280;47228;46.762;23.598;2023-03-14T10:08:16;96480.95;;;13.07;40.12
61359;BME280;47228;46.762;23.598;2023-03-14T10:10:44;96471.48;;;13.29;39.90
61359;BME280;47228;46.762;23.598;2023-03-14T10:13:24;96465.89;;;13.49;39.65
61359;BME280;47228;46.762;23.598;2023-03-14T10:15:56;96460.40;;;13.72;39.05
61359;BME280;47228;46.762;23.598;2023-03-14T10:18:29;96450.19;;;13.91;37.95
61359;BME280;47228;46.762;23.598;2023-03-14T10:21:07;96436.90;;;14.04;36.92
61359;BME280;47228;46.762;23.598;2023-03-14T10:23:44;96432.34;;;14.21;37.05
61359;BME280;47228;46.762;23.598;2023-03-14T10:26:18;96423.45;;;14.42;36.41
61359;BME280;47228;46.762;23.598;2023-03-14T10:29:08;96421.58;;;14.69;35.11
61359;BME280;47228;46.762;23.598;2023-03-14T10:31:53;96416.29;;;15.04;34.99
61359;BME280;47228;46.762;23.598;2023-03-14T10:34:30;96408.98;;;15.44;34.56
61359;BME280;47228;46.762;23.598;2023-03-14T10:37:17;96408.30;;;15.78;34.27
61359;BME280;47228;46.762;23.598;2023-03-14T10:39:50;96408.16;;;16.16;33.42
61359;BME280;47228;46.762;23.598;2023-03-14T10:42:29;96402.16;;;16.48;32.78
61359;BME280;47228;46.762;23.598;2023-03-14T10:45:05;96401.88;;;16.78;32.73
61359;BME280;47228;46.762;23.598;2023-03-14T10:47:35;96399.21;;;17.04;32.66
61359;BME280;47228;46.762;23.598;2023-03-14T10:50:24;96394.02;;;17.21;32.24
61359;BME280;47228;46.762;23.598;2023-03-14T10:52:54;96385.24;;;17.36;31.97
61359;BME280;47228;46.762;23.598;2023-03-14T10:55:43;96379.09;;;17.51;31.91
61359;BME280;47228;46.762;23.598;2023-03-14T10:58:26;96373.95;;;17.66;31.69
61359;BME280;47228;46.762;23.598;2023-03-14T11:15:01;96325.74;;;18.77;30.07
61359;BME280;47228;46.762;23.598;2023-03-14T11:23:12;96313.45;;;19.35;28.46
61359;BME280;47228;46.762;23.598;2023-03-14T11:28:37;96295.65;;;19.57;28.29
61359;BME280;47228;46.762;23.598;2023-03-14T11:31:17;96288.46;;;19.64;27.18
61359;BME280;47228;46.762;23.598;2023-03-14T11:33:57;96282.54;;;19.62;27.09
61359;BME280;47228;46.762;23.598;2023-03-14T11:39:15;96267.34;;;19.51;26.63
61359;BME280;47228;46.762;23.598;2023-03-14T11:41:49;96264.48;;;19.42;26.74
61359;BME280;47228;46.762;23.598;2023-03-14T11:44:28;96260.98;;;19.29;25.96
61359;BME280;47228;46.762;23.598;2023-03-14T11:47:10;96246.79;;;19.11;25.78
61359;BME280;47228;46.762;23.598;2023-03-14T11:49:49;96249.46;;;19.00;27.35
61359;BME280;47228;46.762;23.598;2023-03-14T11:54:59;96235.11;;;18.94;26.59
61359;BME280;47228;46.762;23.598;2023-03-14T11:57:30;96229.05;;;18.81;25.85
61359;BME280;47228;46.762;23.598;2023-03-14T12:00:04;96225.25;;;18.69;26.19
61359;BME280;47228;46.762;23.598;2023-03-14T12:02:53;96219.27;;;18.57;26.13
61359;BME280;47228;46.762;23.598;2023-03-14T12:11:26;96202.58;;;18.14;26.09
61359;BME280;47228;46.762;23.598;2023-03-14T12:13:55;96202.77;;;17.99;26.44
61359;BME280;47228;46.762;23.598;2023-03-14T12:18:52;96194.63;;;17.81;27.26
61359;BME280;47228;46.762;23.598;2023-03-14T12:21:22;96187.84;;;17.77;27.12
61359;BME280;47228;46.762;23.598;2023-03-14T12:23:55;96181.28;;;17.77;26.92
61359;BME280;47228;46.762;23.598;2023-03-14T12:26:27;96176.92;;;17.78;27.22
61359;BME280;47228;46.762;23.598;2023-03-14T12:29:14;96175.07;;;17.82;27.09
61359;BME280;47228;46.762;23.598;2023-03-14T12:31:48;96171.21;;;17.87;26.44
61359;BME280;47228;46.762;23.598;2023-03-14T12:42:02;96146.90;;;18.22;25.83
61359;BME280;47228;46.762;23.598;2023-03-14T12:49:50;96133.77;;;18.48;25.52
61359;BME280;47228;46.762;23.598;2023-03-14T12:52:22;96131.75;;;18.55;25.50
61359;BME280;47228;46.762;23.598;2023-03-14T12:55:14;96124.05;;;18.60;25.23
61359;BME280;47228;46.762;23.598;2023-03-14T12:57:53;96122.52;;;18.63;24.70
61359;BME280;47228;46.762;23.598;2023-03-14T13:00:32;96121.55;;;18.65;24.67
61359;BME280;47228;46.762;23.598;2023-03-14T13:03:21;96118.59;;;18.69;24.64
61359;BME280;47228;46.762;23.598;2023-03-14T13:05:58;96116.95;;;18.72;24.70
61359;BME280;47228;46.762;23.598;2023-03-14T13:08:43;96111.75;;;18.74;24.33
61359;BME280;47228;46.762;23.598;2023-03-14T13:11:16;96111.00;;;18.73;24.21
61359;BME280;47228;46.762;23.598;2023-03-14T13:13:48;96111.94;;;18.72;24.71
61359;BME280;47228;46.762;23.598;2023-03-14T13:16:20;96109.02;;;18.74;24.98
61359;BME280;47228;46.762;23.598;2023-03-14T13:18:50;96104.80;;;18.76;24.18
61359;BME280;47228;46.762;23.598;2023-03-14T13:21:27;96104.70;;;18.74;23.77
61359;BME280;47228;46.762;23.598;2023-03-14T13:24:03;96098.05;;;18.73;23.74
61359;BME280;47228;46.762;23.598;2023-03-14T13:26:36;96092.18;;;18.73;23.32
61359;BME280;47228;46.762;23.598;2023-03-14T13:29:28;96093.45;;;18.75;23.50
61359;BME280;47228;46.762;23.598;2023-03-14T13:32:13;96092.29;;;18.78;23.57
61359;BME280;47228;46.762;23.598;2023-03-14T13:34:43;96088.85;;;18.82;23.52
61359;BME280;47228;46.762;23.598;2023-03-14T13:37:21;96086.11;;;18.85;23.22
61359;BME280;47228;46.762;23.598;2023-03-14T13:39:50;96082.73;;;18.89;23.45
61359;BME280;47228;46.762;23.598;2023-03-14T13:42:19;96080.79;;;18.94;23.35
61359;BME280;47228;46.762;23.598;2023-03-14T13:44:47;96082.34;;;18.99;23.14
61359;BME280;47228;46.762;23.598;2023-03-14T13:47:17;96082.67;;;19.03;23.47
61359;BME280;47228;46.762;23.598;2023-03-14T13:49:46;96077.58;;;19.08;23.74
61359;BME280;47228;46.762;23.598;2023-03-14T13:52:35;96075.12;;;19.11;23.66
61359;BME280;47228;46.762;23.598;2023-03-14T13:55:05;96073.48;;;19.12;23.38
61359;BME280;47228;46.762;23.598;2023-03-14T13:58:03;96071.30;;;19.11;23.26
61359;BME280;47228;46.762;23.598;2023-03-14T14:00:31;96068.48;;;19.09;23.05
61359;BME280;47228;46.762;23.598;2023-03-14T14:03:00;96062.94;;;19.08;23.40
61359;BME280;47228;46.762;23.598;2023-03-14T14:05:29;96060.19;;;19.08;23.36
61359;BME280;47228;46.762;23.598;2023-03-14T14:07:59;96056.77;;;19.10;22.81
61359;BME280;47228;46.762;23.598;2023-03-14T14:10:28;96048.70;;;19.11;22.90
61359;BME280;47228;46.762;23.598;2023-03-14T14:13:04;96051.93;;;19.10;23.19
61359;BME280;47228;46.762;23.598;2023-03-14T14:15:39;96050.02;;;19.12;23.37